Time;durP1;ratioP1;P1;durP2;ratioP2;P2;SDS_P1;SDS_P2;PMS_P1;PMS_P2;Temp;Humidity;BMP_temperature;BMP_pressure;BME280_temperature;BME280_humidity;BME280_pressure;Samples;Min_cycle;Max_cycle;Signal;HPM_P1;HPM_P2
2023/05/31 00:02:13;;;;;;;;;;;;;;;13.91;39.58;101816.16;105638;1296;72212;-85
2023/05/31 00:04:58;;;;;;;;;;;;;;;13.81;39.68;101813.33;105642;1297;69161;-85
2023/05/31 00:07:44;;;;;;;;;;;;;;;13.72;39.66;101818.95;105648;1296;72678;-85
2023/05/31 00:10:30;;;;;;;;;;;;;;;13.66;39.75;101817.80;105610;1297;59058;-85
2023/05/31 00:13:16;;;;;;;;;;;;;;;13.58;39.80;101817.00;105645;1297;59849;-85
2023/05/31 00:16:02;;;;;;;;;;;;;;;13.54;39.88;101815.83;105565;1297;73409;-85
2023/05/31 00:18:48;;;;;;;;;;;;;;;13.48;39.93;101817.12;105686;1297;68115;-85
2023/05/31 00:21:33;;;;;;;;;;;;;;;13.40;40.04;101814.95;105484;1297;70252;-85
2023/05/31 00:24:19;;;;;;;;;;;;;;;13.34;39.99;101814.65;105666;1297;59014;-85
2023/05/31 00:27:05;;;;;;;;;;;;;;;13.25;40.10;101817.31;105650;1297;59787;-85
2023/05/31 00:29:51;;;;;;;;;;;;;;;13.24;40.08;101822.35;105538;1297;72544;-85
2023/05/31 00:32:37;;;;;;;;;;;;;;;13.24;40.16;101825.45;105592;1297;67462;-85
2023/05/31 00:35:23;;;;;;;;;;;;;;;13.20;40.26;101826.17;105666;1296;71688;-85
2023/05/31 00:38:09;;;;;;;;;;;;;;;13.11;40.30;101826.91;105633;1296;58874;-84
2023/05/31 00:40:55;;;;;;;;;;;;;;;12.97;40.52;101829.79;105613;1296;59114;-85
2023/05/31 00:43:41;;;;;;;;;;;;;;;12.83;40.56;101828.15;105636;1297;74908;-84
2023/05/31 00:46:31;;;;;;;;;;;;;;;12.76;40.76;101826.12;105628;1296;67457;-84
2023/05/31 00:49:18;;;;;;;;;;;;;;;12.73;40.73;101826.30;105655;1297;71563;-84
2023/05/31 00:52:04;;;;;;;;;;;;;;;12.69;40.79;101827.20;105446;1296;174368;-85
2023/05/31 00:54:50;;;;;;;;;;;;;;;12.66;40.79;101829.29;105660;1297;58943;-85
2023/05/31 00:57:37;;;;;;;;;;;;;;;12.61;40.91;101828.09;105660;1296;72883;-84
2023/05/31 01:00:22;;;;;;;;;;;;;;;12.53;40.87;101831.24;105616;1297;68731;-84
2023/05/31 01:03:08;;;;;;;;;;;;;;;12.44;40.85;101834.08;105648;1296;71449;-85
2023/05/31 01:05:55;;;;;;;;;;;;;;;12.37;40.96;101839.98;105628;1297;59934;-85
2023/05/31 01:08:41;;;;;;;;;;;;;;;12.32;40.94;101837.07;105435;1298;60210;-85
2023/05/31 01:11:46;;;;;;;;;;;;;;;12.24;41.03;101838.13;105648;1297;74622;-85
2023/05/31 01:14:36;;;;;;;;;;;;;;;12.15;41.06;101838.67;105681;1297;68824;-85
2023/05/31 01:17:31;;;;;;;;;;;;;;;12.08;41.20;101840.41;105606;1296;71396;-85
2023/05/31 01:20:19;;;;;;;;;;;;;;;12.03;41.25;101839.73;105661;1297;59216;-85
2023/05/31 01:23:05;;;;;;;;;;;;;;;11.98;41.29;101842.86;105675;1297;59917;-84
2023/05/31 01:26:05;;;;;;;;;;;;;;;11.92;41.39;101843.42;105612;1297;74524;-87
2023/05/31 01:28:54;;;;;;;;;;;;;;;11.84;41.48;101843.95;105663;1297;67503;-87
2023/05/31 01:31:41;;;;;;;;;;;;;;;11.79;41.60;101845.51;105439;1297;71125;-87
2023/05/31 01:34:27;;;;;;;;;;;;;;;11.67;41.75;101850.33;105602;1297;59044;-88
2023/05/31 01:37:13;;;;;;;;;;;;;;;11.61;41.87;101852.23;105622;1297;59007;-87
2023/05/31 01:39:59;;;;;;;;;;;;;;;11.55;41.89;101847.23;105588;1297;73216;-87
2023/05/31 01:42:45;;;;;;;;;;;;;;;11.49;41.84;101846.88;105671;1297;67555;-87
2023/05/31 01:45:32;;;;;;;;;;;;;;;11.44;41.89;101849.48;105606;1296;71391;-87
2023/05/31 01:48:18;;;;;;;;;;;;;;;11.42;41.91;101851.23;105596;1297;59101;-87
2023/05/31 01:51:05;;;;;;;;;;;;;;;11.38;42.02;101853.29;105597;1297;59199;-87
2023/05/31 01:53:51;;;;;;;;;;;;;;;11.34;42.11;101856.39;105677;1297;74567;-87
2023/05/31 01:56:39;;;;;;;;;;;;;;;11.25;42.22;101854.65;105538;1297;67391;-87
2023/05/31 01:59:25;;;;;;;;;;;;;;;11.13;42.29;101857.57;105658;1297;72588;-87
2023/05/31 02:02:11;;;;;;;;;;;;;;;11.08;42.28;101857.56;105591;1297;59353;-87
2023/05/31 02:05:08;;;;;;;;;;;;;;;11.03;42.21;101861.35;105663;1297;59364;-87
2023/05/31 02:07:54;;;;;;;;;;;;;;;10.97;42.38;101859.44;105661;1296;73195;-88
2023/05/31 02:10:40;;;;;;;;;;;;;;;10.84;42.47;101858.05;105621;1296;67196;-87
2023/05/31 02:13:27;;;;;;;;;;;;;;;10.73;42.57;101858.54;105642;1297;71219;-87
2023/05/31 02:16:13;;;;;;;;;;;;;;;10.72;42.65;101855.43;105584;1296;58935;-87
2023/05/31 02:18:59;;;;;;;;;;;;;;;10.76;42.71;101856.48;105680;1297;59779;-87
2023/05/31 02:21:45;;;;;;;;;;;;;;;10.74;42.78;101858.53;105686;1297;73443;-87
2023/05/31 02:24:31;;;;;;;;;;;;;;;10.70;42.79;101854.55;105604;1296;67415;-87
2023/05/31 02:27:17;;;;;;;;;;;;;;;10.65;42.88;101848.16;105695;1297;70354;-87
2023/05/31 02:30:06;;;;;;;;;;;;;;;10.62;42.99;101849.88;105639;1296;59078;-87
2023/05/31 02:32:53;;;;;;;;;;;;;;;10.58;43.03;101848.83;105668;1296;59741;-87
2023/05/31 02:35:39;;;;;;;;;;;;;;;10.55;43.05;101848.13;105650;1297;73540;-87
2023/05/31 02:38:25;;;;;;;;;;;;;;;10.53;43.02;101848.80;105632;1296;68559;-87
2023/05/31 02:41:11;;;;;;;;;;;;;;;10.47;43.04;101843.44;105531;1297;71879;-87
2023/05/31 02:43:57;;;;;;;;;;;;;;;10.44;43.16;101846.88;105639;1297;59188;-87
2023/05/31 02:46:43;;;;;;;;;;;;;;;10.42;43.14;101847.89;105660;1296;59563;-87
2023/05/31 02:49:29;;;;;;;;;;;;;;;10.43;43.17;101847.04;105661;1297;74407;-87
2023/05/31 02:52:15;;;;;;;;;;;;;;;10.42;43.28;101847.38;105607;1297;69074;-87
2023/05/31 02:55:00;;;;;;;;;;;;;;;10.39;43.46;101847.39;105657;1297;72141;-88
2023/05/31 02:57:46;;;;;;;;;;;;;;;10.39;43.45;101850.31;105666;1297;59364;-87
2023/05/31 03:00:33;;;;;;;;;;;;;;;10.37;43.49;101849.28;105620;1297;59368;-87
2023/05/31 03:03:18;;;;;;;;;;;;;;;10.34;43.42;101850.13;105561;1297;72305;-87
2023/05/31 03:06:19;;;;;;;;;;;;;;;10.29;43.59;101849.59;105511;1296;68490;-87
2023/05/31 03:09:05;;;;;;;;;;;;;;;10.22;43.63;101851.27;105536;1299;72973;-87
2023/05/31 03:11:51;;;;;;;;;;;;;;;10.19;43.75;101853.65;105645;1298;59252;-88
2023/05/31 03:14:37;;;;;;;;;;;;;;;10.18;43.80;101851.73;105656;1297;58933;-87
2023/05/31 03:17:22;;;;;;;;;;;;;;;10.17;43.90;101850.52;105602;1297;74652;-87
2023/05/31 03:20:08;;;;;;;;;;;;;;;10.22;43.95;101851.79;105547;1297;68299;-87
2023/05/31 03:22:54;;;;;;;;;;;;;;;10.22;43.97;101849.89;105558;1296;71441;-87
2023/05/31 03:25:40;;;;;;;;;;;;;;;10.26;44.14;101851.98;105477;1299;59038;-87
2023/05/31 03:28:26;;;;;;;;;;;;;;;10.28;44.13;101848.03;105536;1300;59446;-87
2023/05/31 03:31:12;;;;;;;;;;;;;;;10.31;44.23;101853.73;105592;1297;74545;-87
2023/05/31 03:33:58;;;;;;;;;;;;;;;10.32;44.24;101859.26;105611;1297;67426;-87
2023/05/31 03:36:44;;;;;;;;;;;;;;;10.30;44.27;101865.95;105524;1303;73113;-87
2023/05/31 03:39:31;;;;;;;;;;;;;;;10.29;44.25;101870.95;105520;1296;58970;-88
2023/05/31 03:42:17;;;;;;;;;;;;;;;10.30;44.36;101872.34;105514;1297;59158;-87
2023/05/31 03:45:03;;;;;;;;;;;;;;;10.32;44.46;101872.70;105544;1299;74568;-88
2023/05/31 03:47:49;;;;;;;;;;;;;;;10.35;44.50;101873.74;105655;1297;67391;-88
2023/05/31 03:50:35;;;;;;;;;;;;;;;10.37;44.57;101874.10;105598;1297;71273;-87
2023/05/31 03:53:21;;;;;;;;;;;;;;;10.43;44.61;101873.07;105553;1297;59523;-88
2023/05/31 03:56:07;;;;;;;;;;;;;;;10.46;44.71;101873.42;105643;1296;58968;-87
2023/05/31 03:58:53;;;;;;;;;;;;;;;10.53;44.80;101871.90;105568;1297;74639;-87
2023/05/31 04:01:39;;;;;;;;;;;;;;;10.57;44.85;101872.78;105653;1297;67485;-86
2023/05/31 04:04:25;;;;;;;;;;;;;;;10.62;44.96;101876.77;105574;1296;72514;-86
2023/05/31 04:07:11;;;;;;;;;;;;;;;10.75;45.06;101879.59;105450;1297;59407;-87
2023/05/31 04:09:56;;;;;;;;;;;;;;;10.93;45.03;101877.55;105653;1297;59154;-87
2023/05/31 04:12:42;;;;;;;;;;;;;;;11.05;45.03;101877.23;105598;1297;76033;-87
2023/05/31 04:15:29;;;;;;;;;;;;;;;11.12;45.07;101875.69;105650;1297;68604;-87
2023/05/31 04:18:15;;;;;;;;;;;;;;;11.19;45.18;101879.51;105521;1300;73392;-87
2023/05/31 04:21:01;;;;;;;;;;;;;;;11.21;45.17;101878.65;105542;1297;59156;-87
2023/05/31 04:23:47;;;;;;;;;;;;;;;11.28;45.32;101877.62;105458;1298;59205;-87
2023/05/31 04:26:33;;;;;;;;;;;;;;;11.34;45.32;101879.36;105645;1297;73517;-87
2023/05/31 04:29:18;;;;;;;;;;;;;;;11.39;45.41;101881.78;105678;1297;67614;-87
2023/05/31 04:32:05;;;;;;;;;;;;;;;11.46;45.46;101878.48;105659;1297;71637;-87
2023/05/31 04:34:57;;;;;;;;;;;;;;;11.53;45.56;101878.14;105578;1297;59082;-86
2023/05/31 04:37:44;;;;;;;;;;;;;;;11.62;45.57;101872.27;105483;1297;59030;-86
2023/05/31 04:40:33;;;;;;;;;;;;;;;11.71;45.62;101874.50;105528;1297;73423;-86
2023/05/31 04:43:18;;;;;;;;;;;;;;;11.81;45.69;101869.35;105609;1297;66420;-86
2023/05/31 04:46:04;;;;;;;;;;;;;;;11.88;45.86;101873.84;105634;1297;71165;-86
2023/05/31 04:48:51;;;;;;;;;;;;;;;11.93;45.92;101874.52;105576;1297;59407;-86
2023/05/31 04:51:37;;;;;;;;;;;;;;;12.03;45.90;101873.96;105620;1297;59224;-86
2023/05/31 04:54:23;;;;;;;;;;;;;;;12.15;45.83;101867.89;105695;1297;73275;-87
2023/05/31 04:57:09;;;;;;;;;;;;;;;12.29;46.03;101871.84;105627;1297;68845;-86
2023/05/31 04:59:57;;;;;;;;;;;;;;;12.41;45.97;101877.85;105531;1299;72128;-86
2023/05/31 05:02:43;;;;;;;;;;;;;;;12.65;46.09;101881.19;105609;1297;59311;-86
2023/05/31 05:05:29;;;;;;;;;;;;;;;12.95;46.22;101881.20;105618;1298;59442;-86
2023/05/31 05:08:15;;;;;;;;;;;;;;;13.48;46.48;101878.27;105599;1298;74676;-87
2023/05/31 05:11:02;;;;;;;;;;;;;;;14.23;46.21;101875.98;105640;1297;66670;-87
2023/05/31 05:13:48;;;;;;;;;;;;;;;15.06;45.85;101876.83;105625;1297;72404;-87
2023/05/31 05:16:34;;;;;;;;;;;;;;;15.85;45.59;101874.16;105621;1296;59011;-87
2023/05/31 05:19:20;;;;;;;;;;;;;;;16.48;45.30;101866.14;105624;1297;59441;-87
2023/05/31 05:22:06;;;;;;;;;;;;;;;17.21;45.07;101865.58;105616;1297;73687;-87
2023/05/31 05:24:52;;;;;;;;;;;;;;;17.99;44.87;101862.38;105567;1298;66510;-87
2023/05/31 05:27:39;;;;;;;;;;;;;;;18.68;44.49;101858.31;105636;1297;71995;-87
2023/05/31 05:30:25;;;;;;;;;;;;;;;19.24;44.30;101859.19;105602;1297;59093;-87
2023/05/31 05:33:11;;;;;;;;;;;;;;;19.78;44.00;101855.83;105668;1297;59164;-87
2023/05/31 05:35:57;;;;;;;;;;;;;;;20.16;43.79;101856.23;105669;1297;73348;-87
2023/05/31 05:38:43;;;;;;;;;;;;;;;20.38;43.62;101859.59;105600;1296;67449;-87
2023/05/31 05:41:29;;;;;;;;;;;;;;;20.81;43.52;101856.74;105625;1297;72609;-87
2023/05/31 05:44:15;;;;;;;;;;;;;;;21.31;43.27;101860.87;105648;1298;59023;-85
2023/05/31 05:47:01;;;;;;;;;;;;;;;21.72;42.97;101863.92;105683;1298;58994;-85
2023/05/31 05:49:48;;;;;;;;;;;;;;;22.17;42.84;101863.67;105543;1298;73360;-85
2023/05/31 05:52:34;;;;;;;;;;;;;;;22.61;42.68;101863.75;105673;1299;67440;-85
2023/05/31 05:55:20;;;;;;;;;;;;;;;22.97;42.38;101864.36;105638;1298;72647;-85
2023/05/31 05:58:06;;;;;;;;;;;;;;;23.33;42.21;101864.86;105619;1297;58892;-85
2023/05/31 06:00:52;;;;;;;;;;;;;;;23.64;42.07;101863.15;105680;1296;58985;-85
2023/05/31 06:03:41;;;;;;;;;;;;;;;23.88;41.76;101863.19;83547;1300;20002442;-85
2023/05/31 06:06:27;;;;;;;;;;;;;;;24.09;41.53;101861.67;105373;1300;67457;-85
2023/05/31 06:09:13;;;;;;;;;;;;;;;24.30;41.49;101861.98;105398;1300;72977;-85
2023/05/31 06:11:58;;;;;;;;;;;;;;;24.50;41.28;101864.45;105405;1300;59012;-85
2023/05/31 06:14:44;;;;;;;;;;;;;;;24.63;41.01;101857.52;105286;1300;59152;-85
2023/05/31 06:17:30;;;;;;;;;;;;;;;24.89;40.85;101858.36;105347;1299;74277;-85
2023/05/31 06:20:16;;;;;;;;;;;;;;;25.23;40.42;101856.11;105397;1300;68639;-85
2023/05/31 06:23:03;;;;;;;;;;;;;;;25.58;40.29;101858.09;105320;1300;72479;-85
2023/05/31 06:25:49;;;;;;;;;;;;;;;26.08;39.99;101851.70;105188;1300;59567;-85
2023/05/31 06:28:35;;;;;;;;;;;;;;;26.67;39.62;101853.13;105239;1300;59387;-85
2023/05/31 06:31:20;;;;;;;;;;;;;;;27.17;39.46;101858.54;105310;1299;74391;-85
2023/05/31 06:34:06;;;;;;;;;;;;;;;27.39;39.05;101854.04;105232;1305;67648;-85
2023/05/31 06:36:52;;;;;;;;;;;;;;;27.89;39.07;101845.13;105233;1305;72688;-85
2023/05/31 06:39:38;;;;;;;;;;;;;;;28.53;38.30;101841.98;105221;1300;59052;-85
2023/05/31 06:42:24;;;;;;;;;;;;;;;28.79;38.29;101840.67;105264;1300;58957;-85
2023/05/31 06:45:10;;;;;;;;;;;;;;;29.10;38.24;101841.33;105094;1304;293159;-85
2023/05/31 06:47:56;;;;;;;;;;;;;;;29.24;38.49;101837.10;105193;1303;68621;-85
2023/05/31 06:50:42;;;;;;;;;;;;;;;29.32;38.23;101832.56;105134;1305;71405;-85
2023/05/31 06:53:28;;;;;;;;;;;;;;;29.49;37.76;101833.41;105190;1303;59372;-85
2023/05/31 06:56:15;;;;;;;;;;;;;;;30.04;37.29;101832.52;105207;1302;59765;-85
2023/05/31 06:59:01;;;;;;;;;;;;;;;30.77;36.70;101831.95;105275;1300;73173;-85
2023/05/31 07:01:47;;;;;;;;;;;;;;;31.72;36.08;101829.59;105073;1300;67746;-85
2023/05/31 07:04:33;;;;;;;;;;;;;;;32.64;35.89;101827.87;105240;1302;71608;-85
2023/05/31 07:07:19;;;;;;;;;;;;;;;33.43;35.32;101823.82;105198;1302;59031;-85
2023/05/31 07:10:05;;;;;;;;;;;;;;;33.74;34.98;101827.49;105242;1301;59260;-85
2023/05/31 07:12:51;;;;;;;;;;;;;;;34.27;34.84;101820.05;105218;1302;73461;-85
2023/05/31 07:15:37;;;;;;;;;;;;;;;34.96;34.51;101818.57;105201;1303;68092;-85
2023/05/31 07:18:23;;;;;;;;;;;;;;;35.28;34.39;101816.90;105152;1302;72271;-85
2023/05/31 07:21:09;;;;;;;;;;;;;;;34.96;34.55;101813.32;105245;1305;59324;-86
2023/05/31 07:23:55;;;;;;;;;;;;;;;35.22;34.19;101808.70;105297;1302;59972;-86
2023/05/31 07:26:41;;;;;;;;;;;;;;;34.33;33.77;101804.03;105206;1301;74053;-86
2023/05/31 07:29:27;;;;;;;;;;;;;;;33.83;33.93;101801.38;105293;1305;67496;-86
2023/05/31 07:32:13;;;;;;;;;;;;;;;34.25;33.11;101804.13;105203;1301;71225;-86
2023/05/31 07:35:00;;;;;;;;;;;;;;;33.74;32.83;101798.50;105324;1299;59670;-86
2023/05/31 07:37:46;;;;;;;;;;;;;;;33.12;31.87;101796.67;105225;1302;59286;-86
2023/05/31 07:40:32;;;;;;;;;;;;;;;32.29;32.36;101790.19;105177;1303;74506;-86
2023/05/31 07:43:20;;;;;;;;;;;;;;;33.08;31.84;101794.93;105281;1303;67455;-85
2023/05/31 07:46:06;;;;;;;;;;;;;;;34.80;30.51;101791.88;105186;1302;71414;-85
2023/05/31 07:48:53;;;;;;;;;;;;;;;36.34;30.00;101792.28;105071;1302;59237;-85
2023/05/31 07:51:40;;;;;;;;;;;;;;;37.85;29.42;101788.09;105218;1304;60005;-86
2023/05/31 07:54:26;;;;;;;;;;;;;;;38.94;29.33;101790.00;105179;1303;73612;-86
2023/05/31 07:57:11;;;;;;;;;;;;;;;39.43;28.25;101787.75;105091;1307;68932;-86
2023/05/31 07:59:57;;;;;;;;;;;;;;;40.29;28.63;101781.45;105237;1300;72502;-86
2023/05/31 08:02:43;;;;;;;;;;;;;;;41.50;28.50;101778.10;105063;1301;59102;-86
2023/05/31 08:05:29;;;;;;;;;;;;;;;42.58;28.13;101776.47;105229;1301;59381;-86
2023/05/31 08:08:15;;;;;;;;;;;;;;;42.87;27.70;101777.56;105173;1301;75023;-86
2023/05/31 08:11:02;;;;;;;;;;;;;;;43.22;27.59;101782.94;105127;1305;67252;-86
2023/05/31 08:13:48;;;;;;;;;;;;;;;43.56;27.09;101776.70;105146;1303;72780;-86
2023/05/31 08:16:34;;;;;;;;;;;;;;;44.11;26.36;101769.59;105059;1303;59669;-86
2023/05/31 08:19:21;;;;;;;;;;;;;;;44.49;26.18;101771.58;105130;1302;59611;-86
2023/05/31 08:22:07;;;;;;;;;;;;;;;44.72;25.74;101765.77;105202;1303;73992;-86
2023/05/31 08:24:54;;;;;;;;;;;;;;;45.56;25.58;101765.95;105189;1301;67347;-86
2023/05/31 08:27:40;;;;;;;;;;;;;;;46.32;25.32;101765.08;105166;1302;71804;-86
2023/05/31 08:30:26;;;;;;;;;;;;;;;46.73;24.80;101771.02;105226;1303;59364;-86
2023/05/31 08:33:12;;;;;;;;;;;;;;;46.50;24.52;101765.44;105177;1300;59324;-86
2023/05/31 08:35:59;;;;;;;;;;;;;;;45.44;23.85;101756.69;105170;1300;73555;-86
2023/05/31 08:38:45;;;;;;;;;;;;;;;45.40;23.82;101755.85;105095;1305;68550;-86
2023/05/31 08:41:37;;;;;;;;;;;;;;;46.10;23.50;101755.88;105140;1301;72433;-86
2023/05/31 08:44:27;;;;;;;;;;;;;;;46.95;23.04;101755.79;105032;1303;58991;-84
2023/05/31 08:47:23;;;;;;;;;;;;;;;47.05;22.32;101751.73;105058;1303;59114;-84
2023/05/31 08:50:17;;;;;;;;;;;;;;;46.86;21.88;101746.39;105214;1299;64853;-84
2023/05/31 08:53:05;;;;;;;;;;;;;;;46.53;21.64;101742.15;105143;1305;69130;-84
2023/05/31 08:55:55;;;;;;;;;;;;;;;45.22;21.17;101738.09;105098;1306;63856;-84
2023/05/31 08:58:42;;;;;;;;;;;;;;;41.67;21.36;101732.91;105110;1302;59076;-84
2023/05/31 09:01:30;;;;;;;;;;;;;;;38.76;21.30;101719.59;104953;1302;59843;-84
2023/05/31 09:04:16;;;;;;;;;;;;;;;36.66;21.22;101706.85;105107;1301;73208;-84
2023/05/31 09:07:03;;;;;;;;;;;;;;;34.76;21.10;101704.97;105127;1300;69021;-83
2023/05/31 09:09:49;;;;;;;;;;;;;;;33.28;20.94;101705.42;105208;1302;73334;-83
2023/05/31 09:12:38;;;;;;;;;;;;;;;31.82;20.91;101697.32;105040;1301;59129;-83
2023/05/31 09:15:22;;;;;;;;;;;;;;;30.70;20.65;101693.63;105104;1303;58902;-84
2023/05/31 09:18:18;;;;;;;;;;;;;;;29.84;20.70;101698.80;105248;1299;73413;-84
2023/05/31 09:21:07;;;;;;;;;;;;;;;28.94;20.58;101691.64;105163;1299;67988;-84
2023/05/31 09:23:55;;;;;;;;;;;;;;;28.16;20.59;101693.91;105102;1300;72042;-84
2023/05/31 09:26:48;;;;;;;;;;;;;;;27.52;20.58;101694.80;105219;1299;59120;-84
2023/05/31 09:29:36;;;;;;;;;;;;;;;26.88;20.56;101695.31;105060;1302;60349;-84
2023/05/31 09:32:20;;;;;;;;;;;;;;;26.38;20.69;101696.88;105052;1302;74426;-84
2023/05/31 09:35:15;;;;;;;;;;;;;;;25.99;20.78;101694.61;105103;1301;68587;-84
2023/05/31 09:38:03;;;;;;;;;;;;;;;25.58;20.71;101693.99;105103;1299;71627;-84
2023/05/31 09:40:47;;;;;;;;;;;;;;;25.18;20.98;101690.66;105040;1300;59492;-84
2023/05/31 09:43:38;;;;;;;;;;;;;;;24.91;21.00;101690.65;104921;1301;59090;-84
2023/05/31 09:46:22;;;;;;;;;;;;;;;24.71;20.94;101687.23;105105;1302;73465;-84
2023/05/31 09:49:06;;;;;;;;;;;;;;;24.59;21.27;101683.73;105210;1300;67973;-84
2023/05/31 09:51:53;;;;;;;;;;;;;;;24.46;21.19;101685.73;105192;1302;71588;-84
2023/05/31 09:54:39;;;;;;;;;;;;;;;24.24;21.20;101678.86;105151;1301;59343;-84
2023/05/31 09:57:38;;;;;;;;;;;;;;;24.03;21.37;101677.73;105166;1302;59457;-84
2023/05/31 10:00:25;;;;;;;;;;;;;;;23.91;21.29;101676.85;105222;1302;74543;-84
2023/05/31 10:03:11;;;;;;;;;;;;;;;23.75;21.42;101671.70;105177;1301;69756;-84
2023/05/31 10:05:57;;;;;;;;;;;;;;;23.61;21.74;101667.04;105179;1301;71297;-84
2023/05/31 10:08:44;;;;;;;;;;;;;;;23.52;21.41;101666.06;105222;1302;59292;-84
2023/05/31 10:11:37;;;;;;;;;;;;;;;23.37;21.42;101661.41;105122;1302;59410;-84
2023/05/31 10:14:28;;;;;;;;;;;;;;;23.22;21.65;101666.09;105133;1302;74576;-84
2023/05/31 10:17:19;;;;;;;;;;;;;;;23.13;21.60;101663.02;105188;1305;67460;-84
2023/05/31 10:20:08;;;;;;;;;;;;;;;22.98;21.54;101655.91;105114;1302;72537;-83
2023/05/31 10:22:56;;;;;;;;;;;;;;;22.80;21.34;101655.27;105288;1301;59259;-83
2023/05/31 10:26:01;;;;;;;;;;;;;;;22.51;21.28;101646.33;105203;1302;59297;-83
2023/05/31 10:28:53;;;;;;;;;;;;;;;22.37;21.22;101643.69;105179;1300;75380;-83
2023/05/31 10:31:51;;;;;;;;;;;;;;;22.36;21.67;101639.64;105215;1299;67432;-83
2023/05/31 10:34:37;;;;;;;;;;;;;;;22.37;21.81;101637.67;105097;1302;73065;-83
2023/05/31 10:37:23;;;;;;;;;;;;;;;22.40;21.83;101640.02;105154;1301;58420;-83
2023/05/31 10:40:19;;;;;;;;;;;;;;;22.39;21.94;101632.99;105210;1301;59380;-83
2023/05/31 10:43:11;;;;;;;;;;;;;;;22.45;22.01;101637.47;105197;1303;73392;-83
2023/05/31 10:46:23;;;;;;;;;;;;;;;22.45;21.79;101643.08;105187;1302;68163;-84
2023/05/31 10:49:10;;;;;;;;;;;;;;;22.45;22.00;101640.48;105129;1302;73010;-84
2023/05/31 10:52:03;;;;;;;;;;;;;;;22.49;22.13;101632.34;105198;1300;58993;-83
2023/05/31 10:54:49;;;;;;;;;;;;;;;22.52;22.29;101633.59;105207;1302;59392;-83
2023/05/31 10:57:36;;;;;;;;;;;;;;;22.61;22.23;101625.62;105086;1300;74116;-83
2023/05/31 11:00:23;;;;;;;;;;;;;;;22.69;22.58;101617.13;105093;1302;67922;-83
2023/05/31 11:03:09;;;;;;;;;;;;;;;22.77;22.40;101617.22;105272;1300;72556;-83
2023/05/31 11:05:56;;;;;;;;;;;;;;;22.65;22.18;101619.09;105161;1299;59015;-83
2023/05/31 11:08:59;;;;;;;;;;;;;;;22.56;22.36;101615.65;105158;1302;59640;-83
2023/05/31 11:11:46;;;;;;;;;;;;;;;22.59;22.45;101616.04;105132;1302;75283;-83
2023/05/31 11:14:32;;;;;;;;;;;;;;;22.59;22.56;101614.63;105169;1301;67225;-83
2023/05/31 11:17:19;;;;;;;;;;;;;;;22.69;22.61;101615.33;105067;1302;70688;-83
2023/05/31 11:20:06;;;;;;;;;;;;;;;22.79;22.64;101605.91;105110;1302;59396;-83
2023/05/31 11:23:15;;;;;;;;;;;;;;;22.84;22.60;101607.09;105121;1300;59167;-83
2023/05/31 11:26:14;;;;;;;;;;;;;;;22.82;22.69;101599.77;105206;1300;74458;-83
2023/05/31 11:29:00;;;;;;;;;;;;;;;22.82;22.58;101594.00;105275;1299;67316;-83
2023/05/31 11:31:58;;;;;;;;;;;;;;;22.84;22.61;101595.30;105311;1299;71346;-84
2023/05/31 11:34:50;;;;;;;;;;;;;;;22.74;22.57;101593.13;105269;1300;58365;-83
2023/05/31 11:37:37;;;;;;;;;;;;;;;22.65;22.70;101587.60;105264;1300;59253;-83
2023/05/31 11:40:23;;;;;;;;;;;;;;;22.72;22.86;101582.00;105111;1302;75599;-84
2023/05/31 11:43:11;;;;;;;;;;;;;;;22.83;22.90;101580.05;105111;1301;69984;-83
2023/05/31 11:45:59;;;;;;;;;;;;;;;22.84;22.68;101578.09;105137;1302;72843;-83
2023/05/31 11:48:46;;;;;;;;;;;;;;;22.78;22.81;101570.09;105182;1301;59504;-83
2023/05/31 11:51:33;;;;;;;;;;;;;;;22.82;22.91;101561.45;105122;1299;59900;-83
2023/05/31 11:54:19;;;;;;;;;;;;;;;22.88;22.92;101556.89;105106;1300;74668;-83
2023/05/31 11:57:09;;;;;;;;;;;;;;;22.92;22.93;101555.45;105124;1302;68600;-83
2023/05/31 12:00:04;;;;;;;;;;;;;;;22.97;22.97;101551.83;105095;1303;71949;-83
2023/05/31 12:02:57;;;;;;;;;;;;;;;23.08;23.26;101547.36;105121;1300;59129;-83
2023/05/31 12:05:51;;;;;;;;;;;;;;;23.23;23.05;101548.00;105279;1300;58964;-83
2023/05/31 12:08:36;;;;;;;;;;;;;;;23.33;22.87;101541.13;105147;1300;74549;-83
2023/05/31 12:11:22;;;;;;;;;;;;;;;23.37;22.98;101540.88;105228;1300;68565;-83
2023/05/31 12:14:11;;;;;;;;;;;;;;;23.41;23.09;101538.52;105127;1300;71730;-83
2023/05/31 12:17:00;;;;;;;;;;;;;;;23.46;23.04;101538.07;105161;1300;59107;-83
2023/05/31 12:19:49;;;;;;;;;;;;;;;23.50;23.04;101533.27;105151;1301;59384;-84
2023/05/31 12:22:35;;;;;;;;;;;;;;;23.58;23.14;101534.61;105116;1300;72911;-84
2023/05/31 12:25:21;;;;;;;;;;;;;;;23.65;23.11;101527.70;105161;1299;69198;-83
2023/05/31 12:28:07;;;;;;;;;;;;;;;23.67;23.16;101525.98;105093;1300;71405;-83
2023/05/31 12:30:56;;;;;;;;;;;;;;;23.68;22.99;101522.47;105225;1299;59386;-83
2023/05/31 12:33:42;;;;;;;;;;;;;;;23.62;22.89;101520.84;105102;1302;60076;-83
2023/05/31 12:36:28;;;;;;;;;;;;;;;23.58;23.02;101514.40;105173;1299;73519;-83
2023/05/31 12:39:16;;;;;;;;;;;;;;;23.52;23.18;101512.23;105169;1299;68099;-83
2023/05/31 12:42:03;;;;;;;;;;;;;;;23.53;23.11;101507.10;105281;1299;72605;-83
2023/05/31 12:44:49;;;;;;;;;;;;;;;23.55;23.06;101500.84;104978;1299;59175;-83
2023/05/31 12:47:35;;;;;;;;;;;;;;;23.60;22.96;101497.38;105071;1300;59887;-83
2023/05/31 12:50:21;;;;;;;;;;;;;;;23.59;22.95;101493.38;105052;1300;74023;-83
2023/05/31 12:53:07;;;;;;;;;;;;;;;23.60;22.87;101489.81;105144;1298;68125;-83
2023/05/31 12:55:53;;;;;;;;;;;;;;;23.48;22.75;101490.25;105243;1300;72464;-83
2023/05/31 12:58:39;;;;;;;;;;;;;;;23.41;22.98;101488.51;105136;1302;59370;-83
2023/05/31 13:01:27;;;;;;;;;;;;;;;23.43;22.92;101485.44;105149;1302;59539;-83
2023/05/31 13:04:13;;;;;;;;;;;;;;;23.47;22.98;101481.55;105246;1300;74589;-83
2023/05/31 13:27:43;;;;;;;;;;;;;;;23.51;23.06;101457.92;99440;1292;59312;-83
2023/05/31 13:33:53;;;;;;;;;;;;;;;23.57;23.27;101445.25;105421;1300;74026;-83
2023/05/31 13:36:40;;;;;;;;;;;;;;;23.60;23.23;101445.09;105338;1299;67893;-83
2023/05/31 13:39:26;;;;;;;;;;;;;;;23.61;23.10;101439.20;105330;1299;71829;-83
2023/05/31 13:42:12;;;;;;;;;;;;;;;23.68;23.40;101430.73;105391;1298;59488;-83
2023/05/31 13:44:58;;;;;;;;;;;;;;;23.76;23.44;101419.88;105359;1299;59409;-83
2023/05/31 13:47:45;;;;;;;;;;;;;;;23.78;23.22;101416.05;105253;1305;74718;-83
2023/05/31 13:50:31;;;;;;;;;;;;;;;23.79;23.34;101407.02;105321;1299;68608;-83
2023/05/31 13:53:17;;;;;;;;;;;;;;;23.79;23.29;101404.03;105353;1297;72616;-83
2023/05/31 13:56:07;;;;;;;;;;;;;;;23.80;23.43;101404.13;105217;1302;59023;-83
2023/05/31 13:58:53;;;;;;;;;;;;;;;23.84;23.28;101395.84;105351;1299;59013;-83
2023/05/31 14:01:39;;;;;;;;;;;;;;;23.82;23.39;101391.36;101349;1300;5161250;-83
2023/05/31 14:04:25;;;;;;;;;;;;;;;23.83;23.41;101386.57;105324;1299;72517;-83
2023/05/31 14:07:11;;;;;;;;;;;;;;;23.86;23.33;101382.17;105326;1300;59126;-83
2023/05/31 14:09:57;;;;;;;;;;;;;;;23.87;23.41;101380.14;105354;1298;59784;-83
2023/05/31 14:12:43;;;;;;;;;;;;;;;23.91;23.53;101374.80;105375;1299;73953;-83
2023/05/31 14:15:29;;;;;;;;;;;;;;;23.90;23.41;101370.48;105316;1299;66963;-84
2023/05/31 14:18:15;;;;;;;;;;;;;;;23.91;23.63;101366.67;105315;1298;73256;-83
2023/05/31 14:21:02;;;;;;;;;;;;;;;23.96;23.64;101365.83;101431;1297;5157323;-83
2023/05/31 14:23:49;;;;;;;;;;;;;;;23.98;23.71;101358.11;105470;1296;74659;-84
2023/05/31 14:26:35;;;;;;;;;;;;;;;24.03;23.85;101356.59;105385;1300;67471;-83
2023/05/31 14:29:20;;;;;;;;;;;;;;;24.05;23.86;101352.59;105176;1299;72876;-83
2023/05/31 14:32:06;;;;;;;;;;;;;;;24.07;23.93;101348.41;105230;1300;59067;-84